Poeta Lopez Anglada — EADS — position and weather

sailwx.info

Track history (hours):
 
Tides and Currents Weather Stations Pressure Air Temp Water Temp Dewpoint Dewpoint Depression Visibility Wind Speed Wind Dir Waves Ship Positions

Poeta Lopez Anglada

Last reported at 2017-Sep-23 21:51 UTC. Time now 2017-Sep-23 23:56 UTC.
Position N 35°56' W 005°31'.

Length 134 m; draft 4.5 m.

Type: Passenger vessel. MMSI: 225409000.

Date/timePositionNaut miles runAvg speedWind from/ knotsBaromVisibWave heightAir tempDewpointWater temp
2017-Sep-23 21:51N 35°56' W 005°31'615.5
2017-Sep-23 21:30N 36°00' W 005°26'  
2017-Sep-21 06:49N 36°07' W 005°24'517.4
2017-Sep-21 06:31N 36°01' W 005°23'1018.1
2017-Sep-21 05:58N 35°54' W 005°31'2 1.4
2017-Sep-21 04:17N 35°56' W 005°30'415.5
2017-Sep-21 04:00N 35°60' W 005°27'815.6
2017-Sep-21 03:30N 36°07' W 005°23'2 4.6
2017-Sep-21 03:00N 36°08' W 005°26'0 0.0
2017-Sep-21 02:30N 36°08' W 005°26'1 1.7
2017-Sep-21 01:58N 36°09' W 005°26'2 4.4
2017-Sep-21 01:30N 36°08' W 005°24'817.0
2017-Sep-21 01:00N 35°59' W 005°25'7 2.6
2017-Sep-20 22:09N 35°54' W 005°31'3 5.0
2017-Sep-20 21:37N 35°56' W 005°30'216.7
2017-Sep-20 21:30N 35°58' W 005°29'816.1
2017-Sep-20 21:01N 36°05' W 005°24'2 0.9
2017-Sep-20 18:53N 36°07' W 005°24'717.9
2017-Sep-20 18:30N 35°60' W 005°25'6 1.8
2017-Sep-20 15:23N 35°57' W 005°31'716.2
2017-Sep-20 14:56N 36°02' W 005°25'2 0.6
2017-Sep-20 12:08N 36°03' W 005°24'217.7
2017-Sep-20 12:00N 36°01' W 005°24'9 3.7
2017-Sep-20 09:31N 35°54' W 005°32'714.9
2017-Sep-20 09:02N 36°00' W 005°27'116.7
2017-Sep-20 09:00N 36°00' W 005°26'3 1.1
2017-Sep-20 06:28N 36°02' W 005°24'11 4.6
2017-Sep-20 04:09N 35°54' W 005°31'315.6
2017-Sep-20 03:58N 35°56' W 005°30'715.6
2017-Sep-20 03:30N 36°02' W 005°25'610.5
2017-Sep-20 02:55N 36°08' W 005°26'0 0.8
2017-Sep-20 02:30N 36°08' W 005°26'0 0.0
2017-Sep-20 02:00N 36°08' W 005°26'0 0.4
2017-Sep-20 01:30N 36°08' W 005°26'5 9.8
2017-Sep-20 01:00N 36°04' W 005°24'917.2
2017-Sep-20 00:30N 35°56' W 005°29'1 0.3
2017-Sep-19 21:46N 35°56' W 005°30'415.0
2017-Sep-19 21:30N 35°60' W 005°27'714.8
2017-Sep-19 21:00N 36°06' W 005°24'2 1.4
2017-Sep-19 19:19N 36°08' W 005°26'2 5.1
2017-Sep-19 19:00N 36°08' W 005°24'917.7
2017-Sep-19 18:31N 35°59' W 005°25'5 1.6
2017-Sep-19 15:29N 35°56' W 005°30'714.3
2017-Sep-19 15:01N 36°01' W 005°24'714.7
2017-Sep-19 14:30N 36°08' W 005°24'2 3.0
2017-Sep-19 13:59N 36°08' W 005°26'0 0.0
2017-Sep-19 13:26N 36°08' W 005°26'1 3.3
2017-Sep-19 13:00N 36°09' W 005°26'814.2
2017-Sep-19 12:29N 36°02' W 005°24'7 2.4
2017-Sep-19 09:33N 35°56' W 005°30'116.7
2017-Sep-19 09:30N 35°57' W 005°29'714.6
2017-Sep-19 09:00N 36°02' W 005°23'3 0.4
2017-Sep-19 00:46N 36°06' W 005°23'518.0
2017-Sep-19 00:30N 36°01' W 005°24'7 2.2
2017-Sep-18 21:24N 35°56' W 005°30'614.8
2017-Sep-18 20:58N 36°01' W 005°25'3 1.2
2017-Sep-18 18:16N 36°04' W 005°23'518.6
2017-Sep-18 18:00N 35°60' W 005°25'4 1.3
2017-Sep-18 15:15N 35°58' W 005°29'314.0
2017-Sep-18 15:00N 36°01' W 005°26'2 1.0
2017-Sep-18 12:37N 36°02' W 005°24'218.7
2017-Sep-18 12:30N 36°00' W 005°25'6 1.9
2017-Sep-18 09:37N 35°56' W 005°30'216.0
2017-Sep-18 09:29N 35°58' W 005°29'2 0.5
2017-Sep-18 05:58N 35°56' W 005°28'1 0.4
2017-Sep-18 03:52N 35°57' W 005°30'614.7
2017-Sep-18 03:28N 36°01' W 005°25'3 1.6
2017-Sep-18 01:34N 36°04' W 005°24'117.9
2017-Sep-18 01:30N 36°03' W 005°24'510.7
2017-Sep-18 01:00N 35°57' W 005°26'1 2.2
2017-Sep-18 00:31N 35°58' W 005°25'5 1.9
2017-Sep-17 21:53N 35°56' W 005°31'715.3
2017-Sep-17 21:27N 36°02' W 005°25'7 3.4
2017-Sep-17 19:31N 36°08' W 005°24'017.8
2017-Sep-17 19:30N 36°08' W 005°24'918.2
2017-Sep-17 19:01N 35°59' W 005°25'4 1.5
2017-Sep-17 16:01N 35°56' W 005°30'013.6
2017-Sep-17 16:00N 35°56' W 005°29'713.6
2017-Sep-17 15:30N 36°02' W 005°25'6 3.7
2017-Sep-17 13:49N 36°08' W 005°26'3 8.1
2017-Sep-17 13:30N 36°07' W 005°23'917.9
2017-Sep-17 13:01N 35°58' W 005°26'5 1.6
2017-Sep-17 09:44N 36°03' W 005°24'1 0.4
2017-Sep-17 07:33N 36°04' W 005°23'318.1
2017-Sep-17 07:24N 36°01' W 005°23'7 3.3
2017-Sep-17 05:14N 35°56' W 005°30'414.4
2017-Sep-17 04:57N 35°60' W 005°27'715.3
2017-Sep-17 04:30N 36°06' W 005°23'4 2.3
2017-Sep-17 02:46N 36°09' W 005°26'4 9.5
2017-Sep-17 02:23N 36°06' W 005°23'718.5
2017-Sep-17 02:01N 35°59' W 005°25'5 1.3
2017-Sep-16 22:14N 35°56' W 005°30'416.1
2017-Sep-16 22:00N 35°59' W 005°27'714.6
2017-Sep-16 21:30N 36°06' W 005°23'1 0.6
2017-Sep-16 19:38N 36°06' W 005°24'217.4
2017-Sep-16 19:30N 36°04' W 005°23'917.9
2017-Sep-16 19:00N 35°56' W 005°28'1 0.4
2017-Sep-16 15:30N 35°56' W 005°30'713.1
2017-Sep-16 14:58N 36°02' W 005°25'5 2.1
2017-Sep-16 12:48N 36°06' W 005°23'517.8
2017-Sep-16 12:30N 36°01' W 005°25'6 2.1
2017-Sep-16 09:22N 35°56' W 005°30'814.9
2017-Sep-16 08:49N 36°03' W 005°24'1 0.5
2017-Sep-16 06:22N 36°04' W 005°24'719.1
2017-Sep-16 06:01N 35°58' W 005°27'3 1.3
2017-Sep-16 03:46N 35°56' W 005°30'413.8
2017-Sep-16 03:30N 35°59' W 005°27'9 4.3
2017-Sep-16 01:22N 36°08' W 005°24'514.5
2017-Sep-16 01:00N 36°03' W 005°24'1118.2
2017-Sep-16 00:24N 35°53' W 005°31'3 1.0
2017-Sep-15 21:18N 35°56' W 005°30'515.7
2017-Sep-15 21:00N 36°00' W 005°27'6 2.6
2017-Sep-15 18:50N 36°05' W 005°23'618.7
2017-Sep-15 18:31N 35°59' W 005°25'5 1.4
2017-Sep-15 15:19N 35°56' W 005°30'513.7
2017-Sep-15 14:59N 36°00' W 005°27'6 2.5
2017-Sep-15 12:36N 36°05' W 005°23'217.1
2017-Sep-15 12:30N 36°04' W 005°23'9 3.0
2017-Sep-15 09:25N 35°56' W 005°30'614.0
2017-Sep-15 09:00N 35°60' W 005°25'5 1.6
2017-Sep-15 06:11N 36°04' W 005°24'318.2
2017-Sep-15 06:00N 36°01' W 005°24'6 2.5
2017-Sep-15 03:40N 35°57' W 005°29'315.4
2017-Sep-15 03:30N 35°59' W 005°28'10 4.7
2017-Sep-15 01:25N 36°09' W 005°26'613.1
2017-Sep-15 00:58N 36°03' W 005°24'817.9
2017-Sep-15 00:30N 35°57' W 005°29'1 0.4
2017-Sep-14 22:10N 35°57' W 005°29'414.5
2017-Sep-14 21:53N 35°60' W 005°25'615.8
2017-Sep-14 21:30N 36°06' W 005°24'3 1.7
2017-Sep-14 19:38N 36°08' W 005°26'4 8.8
2017-Sep-14 19:13N 36°05' W 005°24'718.4
2017-Sep-14 18:51N 35°59' W 005°26'3 0.9
2017-Sep-14 15:20N 35°57' W 005°29'614.8
2017-Sep-14 14:55N 36°03' W 005°25'3 1.3
2017-Sep-14 12:23N 36°05' W 005°23'718.5
2017-Sep-14 12:00N 35°59' W 005°25'6 1.1
2017-Sep-14 06:12N 36°05' W 005°23'418.1
2017-Sep-14 06:00N 36°01' W 005°25'917.3
2017-Sep-14 05:28N 35°54' W 005°31'3 1.5
2017-Sep-14 03:42N 35°56' W 005°30'417.4
2017-Sep-14 03:30N 35°59' W 005°28'816.4
2017-Sep-14 03:00N 36°07' W 005°24'2 1.3
2017-Sep-14 01:27N 36°08' W 005°26'2 5.4
2017-Sep-14 01:00N 36°06' W 005°24'816.3
2017-Sep-14 00:31N 35°58' W 005°26'  
Track history (hours):
 
Tides and Currents Weather Stations Pressure Air Temp Water Temp Dewpoint Dewpoint Depression Visibility Wind Speed Wind Dir Waves Ship Positions

Poeta Lopez Anglada

Last reported at 2017-Sep-23 21:51 UTC. Time now 2017-Sep-23 23:56 UTC.
Position N 35°56' W 005°31'.

Length 134 m; draft 4.5 m.

Type: Passenger vessel. MMSI: 225409000.

Date/timePositionNaut miles runAvg speedWind from/ knotsBaromVisibWave heightAir tempDewpointWater temp
2017-Sep-23 21:51N 35°56' W 005°31'615.5
2017-Sep-23 21:30N 36°00' W 005°26'  
2017-Sep-21 06:49N 36°07' W 005°24'517.4
2017-Sep-21 06:31N 36°01' W 005°23'1018.1
2017-Sep-21 05:58N 35°54' W 005°31'2 1.4
2017-Sep-21 04:17N 35°56' W 005°30'415.5
2017-Sep-21 04:00N 35°60' W 005°27'815.6
2017-Sep-21 03:30N 36°07' W 005°23'2 4.6
2017-Sep-21 03:00N 36°08' W 005°26'0 0.0
2017-Sep-21 02:30N 36°08' W 005°26'1 1.7
2017-Sep-21 01:58N 36°09' W 005°26'2 4.4
2017-Sep-21 01:30N 36°08' W 005°24'817.0
2017-Sep-21 01:00N 35°59' W 005°25'7 2.6
2017-Sep-20 22:09N 35°54' W 005°31'3 5.0
2017-Sep-20 21:37N 35°56' W 005°30'216.7
2017-Sep-20 21:30N 35°58' W 005°29'816.1
2017-Sep-20 21:01N 36°05' W 005°24'2 0.9
2017-Sep-20 18:53N 36°07' W 005°24'717.9
2017-Sep-20 18:30N 35°60' W 005°25'6 1.8
2017-Sep-20 15:23N 35°57' W 005°31'716.2
2017-Sep-20 14:56N 36°02' W 005°25'2 0.6
2017-Sep-20 12:08N 36°03' W 005°24'217.7
2017-Sep-20 12:00N 36°01' W 005°24'9 3.7
2017-Sep-20 09:31N 35°54' W 005°32'714.9
2017-Sep-20 09:02N 36°00' W 005°27'116.7
2017-Sep-20 09:00N 36°00' W 005°26'3 1.1
2017-Sep-20 06:28N 36°02' W 005°24'11 4.6
2017-Sep-20 04:09N 35°54' W 005°31'315.6
2017-Sep-20 03:58N 35°56' W 005°30'715.6
2017-Sep-20 03:30N 36°02' W 005°25'610.5
2017-Sep-20 02:55N 36°08' W 005°26'0 0.8
2017-Sep-20 02:30N 36°08' W 005°26'0 0.0
2017-Sep-20 02:00N 36°08' W 005°26'0 0.4
2017-Sep-20 01:30N 36°08' W 005°26'5 9.8
2017-Sep-20 01:00N 36°04' W 005°24'917.2
2017-Sep-20 00:30N 35°56' W 005°29'1 0.3
2017-Sep-19 21:46N 35°56' W 005°30'415.0
2017-Sep-19 21:30N 35°60' W 005°27'714.8
2017-Sep-19 21:00N 36°06' W 005°24'2 1.4
2017-Sep-19 19:19N 36°08' W 005°26'2 5.1
2017-Sep-19 19:00N 36°08' W 005°24'917.7
2017-Sep-19 18:31N 35°59' W 005°25'5 1.6
2017-Sep-19 15:29N 35°56' W 005°30'714.3
2017-Sep-19 15:01N 36°01' W 005°24'714.7
2017-Sep-19 14:30N 36°08' W 005°24'2 3.0
2017-Sep-19 13:59N 36°08' W 005°26'0 0.0
2017-Sep-19 13:26N 36°08' W 005°26'1 3.3
2017-Sep-19 13:00N 36°09' W 005°26'814.2
2017-Sep-19 12:29N 36°02' W 005°24'7 2.4
2017-Sep-19 09:33N 35°56' W 005°30'116.7
2017-Sep-19 09:30N 35°57' W 005°29'714.6
2017-Sep-19 09:00N 36°02' W 005°23'3 0.4
2017-Sep-19 00:46N 36°06' W 005°23'518.0
2017-Sep-19 00:30N 36°01' W 005°24'7 2.2
2017-Sep-18 21:24N 35°56' W 005°30'614.8
2017-Sep-18 20:58N 36°01' W 005°25'3 1.2
2017-Sep-18 18:16N 36°04' W 005°23'518.6
2017-Sep-18 18:00N 35°60' W 005°25'4 1.3
2017-Sep-18 15:15N 35°58' W 005°29'314.0
2017-Sep-18 15:00N 36°01' W 005°26'2 1.0
2017-Sep-18 12:37N 36°02' W 005°24'218.7
2017-Sep-18 12:30N 36°00' W 005°25'6 1.9
2017-Sep-18 09:37N 35°56' W 005°30'216.0
2017-Sep-18 09:29N 35°58' W 005°29'2 0.5
2017-Sep-18 05:58N 35°56' W 005°28'1 0.4
2017-Sep-18 03:52N 35°57' W 005°30'614.7
2017-Sep-18 03:28N 36°01' W 005°25'3 1.6
2017-Sep-18 01:34N 36°04' W 005°24'117.9
2017-Sep-18 01:30N 36°03' W 005°24'510.7
2017-Sep-18 01:00N 35°57' W 005°26'1 2.2
2017-Sep-18 00:31N 35°58' W 005°25'5 1.9
2017-Sep-17 21:53N 35°56' W 005°31'715.3
2017-Sep-17 21:27N 36°02' W 005°25'7 3.4
2017-Sep-17 19:31N 36°08' W 005°24'017.8
2017-Sep-17 19:30N 36°08' W 005°24'918.2
2017-Sep-17 19:01N 35°59' W 005°25'4 1.5
2017-Sep-17 16:01N 35°56' W 005°30'013.6
2017-Sep-17 16:00N 35°56' W 005°29'713.6
2017-Sep-17 15:30N 36°02' W 005°25'6 3.7
2017-Sep-17 13:49N 36°08' W 005°26'3 8.1
2017-Sep-17 13:30N 36°07' W 005°23'917.9
2017-Sep-17 13:01N 35°58' W 005°26'5 1.6
2017-Sep-17 09:44N 36°03' W 005°24'1 0.4
2017-Sep-17 07:33N 36°04' W 005°23'318.1
2017-Sep-17 07:24N 36°01' W 005°23'7 3.3
2017-Sep-17 05:14N 35°56' W 005°30'414.4
2017-Sep-17 04:57N 35°60' W 005°27'715.3
2017-Sep-17 04:30N 36°06' W 005°23'4 2.3
2017-Sep-17 02:46N 36°09' W 005°26'4 9.5
2017-Sep-17 02:23N 36°06' W 005°23'718.5
2017-Sep-17 02:01N 35°59' W 005°25'5 1.3
2017-Sep-16 22:14N 35°56' W 005°30'416.1
2017-Sep-16 22:00N 35°59' W 005°27'714.6
2017-Sep-16 21:30N 36°06' W 005°23'1 0.6
2017-Sep-16 19:38N 36°06' W 005°24'217.4
2017-Sep-16 19:30N 36°04' W 005°23'917.9
2017-Sep-16 19:00N 35°56' W 005°28'1 0.4
2017-Sep-16 15:30N 35°56' W 005°30'713.1
2017-Sep-16 14:58N 36°02' W 005°25'5 2.1
2017-Sep-16 12:48N 36°06' W 005°23'517.8
2017-Sep-16 12:30N 36°01' W 005°25'6 2.1
2017-Sep-16 09:22N 35°56' W 005°30'814.9
2017-Sep-16 08:49N 36°03' W 005°24'1 0.5
2017-Sep-16 06:22N 36°04' W 005°24'719.1
2017-Sep-16 06:01N 35°58' W 005°27'3 1.3
2017-Sep-16 03:46N 35°56' W 005°30'413.8
2017-Sep-16 03:30N 35°59' W 005°27'9 4.3
2017-Sep-16 01:22N 36°08' W 005°24'514.5
2017-Sep-16 01:00N 36°03' W 005°24'1118.2
2017-Sep-16 00:24N 35°53' W 005°31'3 1.0
2017-Sep-15 21:18N 35°56' W 005°30'515.7
2017-Sep-15 21:00N 36°00' W 005°27'6 2.6
2017-Sep-15 18:50N 36°05' W 005°23'618.7
2017-Sep-15 18:31N 35°59' W 005°25'5 1.4
2017-Sep-15 15:19N 35°56' W 005°30'513.7
2017-Sep-15 14:59N 36°00' W 005°27'6 2.5
2017-Sep-15 12:36N 36°05' W 005°23'217.1
2017-Sep-15 12:30N 36°04' W 005°23'9 3.0
2017-Sep-15 09:25N 35°56' W 005°30'614.0
2017-Sep-15 09:00N 35°60' W 005°25'5 1.6
2017-Sep-15 06:11N 36°04' W 005°24'318.2
2017-Sep-15 06:00N 36°01' W 005°24'6 2.5
2017-Sep-15 03:40N 35°57' W 005°29'315.4
2017-Sep-15 03:30N 35°59' W 005°28'10 4.7
2017-Sep-15 01:25N 36°09' W 005°26'613.1
2017-Sep-15 00:58N 36°03' W 005°24'817.9
2017-Sep-15 00:30N 35°57' W 005°29'1 0.4
2017-Sep-14 22:10N 35°57' W 005°29'414.5
2017-Sep-14 21:53N 35°60' W 005°25'615.8
2017-Sep-14 21:30N 36°06' W 005°24'3 1.7
2017-Sep-14 19:38N 36°08' W 005°26'4 8.8
2017-Sep-14 19:13N 36°05' W 005°24'718.4
2017-Sep-14 18:51N 35°59' W 005°26'3 0.9
2017-Sep-14 15:20N 35°57' W 005°29'614.8
2017-Sep-14 14:55N 36°03' W 005°25'3 1.3
2017-Sep-14 12:23N 36°05' W 005°23'718.5
2017-Sep-14 12:00N 35°59' W 005°25'6 1.1
2017-Sep-14 06:12N 36°05' W 005°23'418.1
2017-Sep-14 06:00N 36°01' W 005°25'917.3
2017-Sep-14 05:28N 35°54' W 005°31'3 1.5
2017-Sep-14 03:42N 35°56' W 005°30'417.4
2017-Sep-14 03:30N 35°59' W 005°28'816.4
2017-Sep-14 03:00N 36°07' W 005°24'2 1.3
2017-Sep-14 01:27N 36°08' W 005°26'2 5.4
2017-Sep-14 01:00N 36°06' W 005°24'816.3
2017-Sep-14 00:31N 35°58' W 005°26'  

Dump ship's entire track history